NUA0509 DNAS-DNMM
Flight info
| Callsign | NUA0509 |
|---|---|
| Flight time | 0h 35m |
| Altitude | 26000 |
| Route | UGDUP UL433 EDGOT EDGOT1N |
| Aircraft | A321/M-SDE3FGHIRWY/LB1 |
Departure
| Time | 2026-05-09 15:43 |
|---|---|
| Airport | Asaba International Airport (DNAS) |
Arrival
| Time | 2026-05-09 16:19 |
|---|---|
| Airport | Murtala Muhammed International Airport (DNMM) |
| Time | Latitude | Longitude | Altitude | Speed | Heading |
|---|---|---|---|---|---|
| 2026-05-09 15:22 | 6.20752 | 6.66027 | 309 ft | 0 kts | 289° |
| 2026-05-09 15:22 | 6.20752 | 6.66028 | 309 ft | 0 kts | 289° |
| 2026-05-09 15:33 | 6.20751 | 6.66028 | 307 ft | 0 kts | 289° |
| 2026-05-09 15:34 | 6.20752 | 6.66028 | 307 ft | 0 kts | 289° |
| 2026-05-09 15:34 | 6.20751 | 6.66028 | 307 ft | 0 kts | 289° |
| 2026-05-09 15:38 | 6.20754 | 6.66021 | 309 ft | 6 kts | 289° |
| 2026-05-09 15:38 | 6.20705 | 6.65956 | 309 ft | 23 kts | 201° |
| 2026-05-09 15:38 | 6.20589 | 6.65990 | 311 ft | 17 kts | 108° |
| 2026-05-09 15:39 | 6.20556 | 6.66096 | 311 ft | 15 kts | 106° |
| 2026-05-09 15:39 | 6.20521 | 6.66226 | 310 ft | 24 kts | 106° |
| 2026-05-09 15:39 | 6.20460 | 6.66414 | 311 ft | 28 kts | 107° |
| 2026-05-09 15:39 | 6.20400 | 6.66600 | 309 ft | 29 kts | 109° |
| 2026-05-09 15:40 | 6.20336 | 6.66786 | 308 ft | 27 kts | 109° |
| 2026-05-09 15:40 | 6.20273 | 6.66964 | 308 ft | 26 kts | 108° |
| 2026-05-09 15:40 | 6.20218 | 6.67132 | 311 ft | 24 kts | 109° |
| 2026-05-09 15:40 | 6.20170 | 6.67285 | 310 ft | 23 kts | 105° |
| 2026-05-09 15:41 | 6.20120 | 6.67437 | 310 ft | 23 kts | 110° |
| 2026-05-09 15:41 | 6.20069 | 6.67585 | 308 ft | 22 kts | 108° |
| 2026-05-09 15:41 | 6.20024 | 6.67735 | 304 ft | 23 kts | 106° |
| 2026-05-09 15:41 | 6.19976 | 6.67881 | 307 ft | 21 kts | 109° |
| 2026-05-09 15:42 | 6.19930 | 6.68018 | 306 ft | 21 kts | 108° |
| 2026-05-09 15:42 | 6.19895 | 6.68100 | 304 ft | 3 kts | 14° |
| 2026-05-09 15:42 | 6.19909 | 6.68082 | 303 ft | 4 kts | 290° |
| 2026-05-09 15:42 | 6.19958 | 6.67930 | 306 ft | 54 kts | 288° |
| 2026-05-09 15:43 | 6.20144 | 6.67364 | 309 ft | 113 kts | 289° |
| 2026-05-09 15:43 | 6.20444 | 6.66449 | 310 ft | 159 kts | 289° |
| 2026-05-09 15:43 | 6.20801 | 6.65383 | 833 ft | 156 kts | 285° |
| 2026-05-09 15:43 | 6.21139 | 6.64351 | 1416 ft | 158 kts | 284° |
| 2026-05-09 15:44 | 6.21454 | 6.63276 | 1956 ft | 162 kts | 274° |
| 2026-05-09 15:44 | 6.21469 | 6.62079 | 2215 ft | 181 kts | 264° |
| 2026-05-09 15:44 | 6.21382 | 6.60747 | 2373 ft | 202 kts | 264° |
| 2026-05-09 15:44 | 6.21270 | 6.59263 | 2507 ft | 221 kts | 264° |
| 2026-05-09 15:45 | 6.21155 | 6.57645 | 2650 ft | 242 kts | 264° |
| 2026-05-09 15:45 | 6.21038 | 6.55883 | 2994 ft | 259 kts | 265° |
| 2026-05-09 15:45 | 6.20926 | 6.54080 | 3639 ft | 264 kts | 265° |
| 2026-05-09 15:45 | 6.20818 | 6.52207 | 4295 ft | 270 kts | 266° |
| 2026-05-09 15:46 | 6.20720 | 6.50302 | 4933 ft | 275 kts | 270° |
| 2026-05-09 15:46 | 6.20910 | 6.48370 | 5531 ft | 281 kts | 282° |
| 2026-05-09 15:46 | 6.21267 | 6.46419 | 6119 ft | 287 kts | 281° |
| 2026-05-09 15:46 | 6.21619 | 6.44453 | 6676 ft | 292 kts | 281° |
| 2026-05-09 15:47 | 6.21979 | 6.42429 | 7242 ft | 295 kts | 282° |
| 2026-05-09 15:47 | 6.22341 | 6.40387 | 7791 ft | 299 kts | 282° |
| 2026-05-09 15:47 | 6.22710 | 6.38315 | 8345 ft | 303 kts | 282° |
| 2026-05-09 15:47 | 6.23084 | 6.36209 | 8875 ft | 307 kts | 282° |
| 2026-05-09 15:48 | 6.23456 | 6.34109 | 9408 ft | 311 kts | 283° |
| 2026-05-09 15:48 | 6.23836 | 6.31962 | 9914 ft | 314 kts | 283° |
| 2026-05-09 15:48 | 6.24228 | 6.29750 | 10140 ft | 329 kts | 283° |
| 2026-05-09 15:48 | 6.24645 | 6.27416 | 10265 ft | 346 kts | 282° |
| 2026-05-09 15:49 | 6.25078 | 6.24975 | 10385 ft | 362 kts | 282° |
| 2026-05-09 15:49 | 6.25523 | 6.22452 | 10506 ft | 377 kts | 282° |
| 2026-05-09 15:49 | 6.25983 | 6.19820 | 10778 ft | 386 kts | 282° |
| 2026-05-09 15:49 | 6.26450 | 6.17145 | 11202 ft | 389 kts | 282° |
| 2026-05-09 15:50 | 6.26920 | 6.14447 | 11672 ft | 392 kts | 281° |
| 2026-05-09 15:50 | 6.27391 | 6.11743 | 12129 ft | 394 kts | 281° |
| 2026-05-09 15:50 | 6.27870 | 6.09012 | 12596 ft | 397 kts | 281° |
| 2026-05-09 15:50 | 6.28353 | 6.06267 | 13057 ft | 399 kts | 281° |
| 2026-05-09 15:51 | 6.28833 | 6.03552 | 13488 ft | 401 kts | 281° |
| 2026-05-09 15:51 | 6.29322 | 6.00783 | 13894 ft | 404 kts | 281° |
| 2026-05-09 15:51 | 6.29814 | 5.97989 | 14265 ft | 406 kts | 281° |
| 2026-05-09 15:51 | 6.30310 | 5.95185 | 14643 ft | 408 kts | 281° |
| 2026-05-09 15:52 | 6.31312 | 5.89533 | 15366 ft | 413 kts | 281° |
| 2026-05-09 15:52 | 6.31813 | 5.86682 | 15719 ft | 415 kts | 281° |
| 2026-05-09 15:52 | 6.32315 | 5.83823 | 16076 ft | 417 kts | 281° |
| 2026-05-09 15:53 | 6.32821 | 5.80938 | 16424 ft | 419 kts | 281° |
| 2026-05-09 15:53 | 6.33320 | 5.78089 | 16753 ft | 421 kts | 281° |
| 2026-05-09 15:53 | 6.33835 | 5.75151 | 17067 ft | 423 kts | 281° |
| 2026-05-09 15:53 | 6.34342 | 5.72267 | 17365 ft | 425 kts | 281° |
| 2026-05-09 15:54 | 6.34855 | 5.69338 | 17649 ft | 427 kts | 281° |
| 2026-05-09 15:54 | 6.35370 | 5.66392 | 17921 ft | 428 kts | 281° |
| 2026-05-09 15:54 | 6.35886 | 5.63434 | 18188 ft | 430 kts | 281° |
| 2026-05-09 15:54 | 6.36406 | 5.60467 | 18420 ft | 432 kts | 281° |
| 2026-05-09 15:55 | 6.36928 | 5.57483 | 18642 ft | 434 kts | 281° |
| 2026-05-09 15:55 | 6.37454 | 5.54487 | 18868 ft | 435 kts | 281° |
| 2026-05-09 15:55 | 6.37982 | 5.51490 | 19094 ft | 437 kts | 281° |
| 2026-05-09 15:55 | 6.38512 | 5.48472 | 19310 ft | 439 kts | 281° |
| 2026-05-09 15:56 | 6.39040 | 5.45449 | 19527 ft | 440 kts | 281° |
| 2026-05-09 15:56 | 6.39566 | 5.42436 | 19747 ft | 442 kts | 281° |
| 2026-05-09 15:56 | 6.40100 | 5.39389 | 19971 ft | 444 kts | 281° |
| 2026-05-09 15:56 | 6.40636 | 5.36324 | 20190 ft | 445 kts | 281° |
| 2026-05-09 15:57 | 6.41173 | 5.33250 | 20420 ft | 447 kts | 281° |
| 2026-05-09 15:57 | 6.41714 | 5.30159 | 20650 ft | 449 kts | 281° |
| 2026-05-09 15:57 | 6.42255 | 5.27058 | 20883 ft | 451 kts | 281° |
| 2026-05-09 15:57 | 6.42797 | 5.23939 | 21124 ft | 453 kts | 281° |
| 2026-05-09 15:58 | 6.43341 | 5.20816 | 21360 ft | 454 kts | 281° |
| 2026-05-09 15:58 | 6.43883 | 5.17709 | 21591 ft | 456 kts | 281° |
| 2026-05-09 15:58 | 6.44436 | 5.14551 | 21822 ft | 458 kts | 281° |
| 2026-05-09 15:58 | 6.44991 | 5.11372 | 22061 ft | 460 kts | 281° |
| 2026-05-09 15:59 | 6.45536 | 5.08234 | 22295 ft | 462 kts | 281° |
| 2026-05-09 15:59 | 6.46092 | 5.05037 | 22535 ft | 464 kts | 281° |
| 2026-05-09 15:59 | 6.46657 | 5.01791 | 22774 ft | 466 kts | 281° |
| 2026-05-09 15:59 | 6.47211 | 4.98619 | 22992 ft | 468 kts | 281° |
| 2026-05-09 16:00 | 6.47775 | 4.95388 | 23220 ft | 470 kts | 281° |
| 2026-05-09 16:00 | 6.47965 | 4.94293 | 23300 ft | 470 kts | 281° |
| 2026-05-09 16:00 | 6.48901 | 4.88883 | 23631 ft | 473 kts | 281° |
| 2026-05-09 16:00 | 6.49467 | 4.85621 | 23827 ft | 475 kts | 281° |
| 2026-05-09 16:01 | 6.50039 | 4.82341 | 24016 ft | 476 kts | 281° |
| 2026-05-09 16:01 | 6.50609 | 4.79062 | 24193 ft | 478 kts | 281° |
| 2026-05-09 16:01 | 6.51141 | 4.75758 | 24386 ft | 479 kts | 280° |
| 2026-05-09 16:01 | 6.51619 | 4.72430 | 24573 ft | 481 kts | 279° |
| 2026-05-09 16:02 | 6.52055 | 4.69135 | 24766 ft | 482 kts | 278° |
| 2026-05-09 16:02 | 6.52918 | 4.62412 | 25149 ft | 484 kts | 278° |
| 2026-05-09 16:02 | 6.53364 | 4.59047 | 25350 ft | 485 kts | 279° |
| 2026-05-09 16:03 | 6.53818 | 4.55682 | 25549 ft | 486 kts | 279° |
| 2026-05-09 16:03 | 6.54280 | 4.52294 | 25741 ft | 488 kts | 279° |
| 2026-05-09 16:03 | 6.54741 | 4.48915 | 25870 ft | 488 kts | 279° |
| 2026-05-09 16:03 | 6.55195 | 4.45592 | 25916 ft | 485 kts | 279° |
| 2026-05-09 16:04 | 6.55666 | 4.42234 | 25904 ft | 483 kts | 281° |
| 2026-05-09 16:04 | 6.56466 | 4.38950 | 25907 ft | 483 kts | 290° |
| 2026-05-09 16:04 | 6.57597 | 4.35761 | 25903 ft | 485 kts | 291° |
| 2026-05-09 16:04 | 6.58746 | 4.32562 | 25774 ft | 486 kts | 291° |
| 2026-05-09 16:05 | 6.59900 | 4.29343 | 24804 ft | 491 kts | 291° |
| 2026-05-09 16:05 | 6.61045 | 4.26134 | 24026 ft | 491 kts | 291° |
| 2026-05-09 16:05 | 6.62189 | 4.22912 | 23352 ft | 487 kts | 290° |
| 2026-05-09 16:05 | 6.63112 | 4.19644 | 22610 ft | 483 kts | 285° |
| 2026-05-09 16:06 | 6.63936 | 4.16373 | 21918 ft | 478 kts | 285° |
| 2026-05-09 16:06 | 6.64719 | 4.13140 | 21230 ft | 473 kts | 284° |
| 2026-05-09 16:06 | 6.65480 | 4.09937 | 20579 ft | 468 kts | 284° |
| 2026-05-09 16:06 | 6.66233 | 4.06761 | 19933 ft | 463 kts | 284° |
| 2026-05-09 16:07 | 6.66971 | 4.03665 | 19315 ft | 458 kts | 284° |
| 2026-05-09 16:07 | 6.67717 | 4.00568 | 18677 ft | 454 kts | 285° |
| 2026-05-09 16:07 | 6.68463 | 3.97494 | 18018 ft | 449 kts | 285° |
| 2026-05-09 16:07 | 6.69204 | 3.94465 | 17272 ft | 444 kts | 285° |
| 2026-05-09 16:08 | 6.69940 | 3.91460 | 16563 ft | 440 kts | 285° |
| 2026-05-09 16:08 | 6.70422 | 3.89489 | 16093 ft | 437 kts | 285° |
| 2026-05-09 16:08 | 6.71141 | 3.86536 | 15582 ft | 428 kts | 285° |
| 2026-05-09 16:08 | 6.71829 | 3.83689 | 15467 ft | 410 kts | 285° |
| 2026-05-09 16:09 | 6.72489 | 3.80959 | 15341 ft | 394 kts | 285° |
| 2026-05-09 16:09 | 6.73128 | 3.78324 | 15220 ft | 379 kts | 285° |
| 2026-05-09 16:09 | 6.73744 | 3.75791 | 15103 ft | 365 kts | 285° |
| 2026-05-09 16:09 | 6.74330 | 3.73388 | 14980 ft | 352 kts | 285° |
| 2026-05-09 16:10 | 6.74906 | 3.71020 | 14691 ft | 346 kts | 285° |
| 2026-05-09 16:10 | 6.75475 | 3.68679 | 14260 ft | 340 kts | 285° |
| 2026-05-09 16:10 | 6.76033 | 3.66379 | 13491 ft | 336 kts | 285° |
| 2026-05-09 16:10 | 6.76585 | 3.64100 | 12681 ft | 333 kts | 285° |
| 2026-05-09 16:11 | 6.77130 | 3.61843 | 11889 ft | 330 kts | 285° |
| 2026-05-09 16:11 | 6.77672 | 3.59612 | 11125 ft | 327 kts | 286° |
| 2026-05-09 16:11 | 6.78210 | 3.57402 | 10377 ft | 324 kts | 286° |
| 2026-05-09 16:11 | 6.78743 | 3.55215 | 9614 ft | 321 kts | 286° |
| 2026-05-09 16:12 | 6.79263 | 3.53071 | 8863 ft | 317 kts | 285° |
| 2026-05-09 16:12 | 6.79778 | 3.50936 | 8141 ft | 311 kts | 285° |
| 2026-05-09 16:12 | 6.80285 | 3.48837 | 7427 ft | 306 kts | 285° |
| 2026-05-09 16:12 | 6.80783 | 3.46769 | 6739 ft | 301 kts | 284° |
| 2026-05-09 16:13 | 6.81274 | 3.44738 | 6041 ft | 296 kts | 284° |
| 2026-05-09 16:13 | 6.81748 | 3.42781 | 5673 ft | 278 kts | 284° |
| 2026-05-09 16:13 | 6.82116 | 3.40909 | 5140 ft | 269 kts | 272° |
| 2026-05-09 16:13 | 6.81924 | 3.39067 | 4553 ft | 262 kts | 251° |
| 2026-05-09 16:14 | 6.81146 | 3.37439 | 4033 ft | 258 kts | 232° |
| 2026-05-09 16:14 | 6.80096 | 3.36002 | 3465 ft | 258 kts | 233° |
| 2026-05-09 16:14 | 6.79075 | 3.34569 | 3121 ft | 242 kts | 233° |
| 2026-05-09 16:14 | 6.78002 | 3.33356 | 3068 ft | 224 kts | 215° |
| 2026-05-09 16:15 | 6.76624 | 3.32721 | 3056 ft | 216 kts | 191° |
| 2026-05-09 16:15 | 6.75131 | 3.32655 | 3057 ft | 214 kts | 179° |
| 2026-05-09 16:15 | 6.73646 | 3.32686 | 3065 ft | 213 kts | 179° |
| 2026-05-09 16:15 | 6.72161 | 3.32719 | 2851 ft | 213 kts | 179° |
| 2026-05-09 16:16 | 6.70694 | 3.32744 | 2370 ft | 207 kts | 180° |
| 2026-05-09 16:16 | 6.69308 | 3.32763 | 2047 ft | 191 kts | 180° |
| 2026-05-09 16:16 | 6.68052 | 3.32779 | 1819 ft | 173 kts | 179° |
| 2026-05-09 16:16 | 6.66874 | 3.32793 | 1585 ft | 163 kts | 180° |
| 2026-05-09 16:17 | 6.65791 | 3.32807 | 1381 ft | 150 kts | 179° |
| 2026-05-09 16:17 | 6.64763 | 3.32820 | 1195 ft | 147 kts | 179° |
| 2026-05-09 16:17 | 6.63744 | 3.32832 | 991 ft | 146 kts | 180° |
| 2026-05-09 16:17 | 6.62738 | 3.32845 | 799 ft | 144 kts | 178° |
| 2026-05-09 16:18 | 6.61751 | 3.32857 | 587 ft | 144 kts | 180° |
| 2026-05-09 16:18 | 6.60752 | 3.32874 | 405 ft | 145 kts | 180° |
| 2026-05-09 16:18 | 6.59749 | 3.32893 | 202 ft | 143 kts | 180° |
| 2026-05-09 16:18 | 6.58810 | 3.32901 | 125 ft | 115 kts | 179° |
| 2026-05-09 16:19 | 6.58223 | 3.32910 | 118 ft | 60 kts | 179° |
| 2026-05-09 16:19 | 6.58052 | 3.32950 | 114 ft | 12 kts | 94° |
| 2026-05-09 16:19 | 6.58058 | 3.33032 | 114 ft | 11 kts | 61° |
| 2026-05-09 16:19 | 6.58143 | 3.33049 | 115 ft | 17 kts | 0° |
| 2026-05-09 16:20 | 6.58252 | 3.33048 | 118 ft | 14 kts | 358° |
| 2026-05-09 16:20 | 6.58341 | 3.33052 | 120 ft | 11 kts | 20° |
| 2026-05-09 16:20 | 6.58372 | 3.33117 | 119 ft | 14 kts | 80° |
| 2026-05-09 16:20 | 6.58403 | 3.33176 | 119 ft | 5 kts | 63° |
| 2026-05-09 16:21 | 6.58412 | 3.33205 | 118 ft | 4 kts | 79° |
| 2026-05-09 16:21 | 6.58413 | 3.33210 | 119 ft | 0 kts | 79° |